Time;durP1;ratioP1;P1;durP2;ratioP2;P2;SDS_P1;SDS_P2;PMS_P1;PMS_P2;Temp;Humidity;BMP_temperature;BMP_pressure;BME280_temperature;BME280_humidity;BME280_pressure;Samples;Min_cycle;Max_cycle;Signal;HPM_P1;HPM_P2
2021/05/06 00:33:19;;;;;;;1.30;0.63;;;8.60;72.30;;;;;;5054334;28;20412;-69
2021/05/06 00:35:45;;;;;;;4.30;0.88;;;8.50;72.20;;;;;;5053613;28;20025;-69
2021/05/06 00:38:14;;;;;;;1.05;0.68;;;8.60;72.50;;;;;;5035657;28;20025;-69
2021/05/06 00:41:06;;;;;;;2.13;0.80;;;8.50;72.40;;;;;;5050376;28;20065;-70
2021/05/06 00:43:59;;;;;;;1.30;0.70;;;8.60;72.50;;;;;;5053777;28;20021;-69
2021/05/06 01:05:02;;;;;;;1.33;0.55;;;8.50;73.70;;;;;;5025382;28;20026;-70
2021/05/06 01:12:42;;;;;;;1.42;0.60;;;8.50;73.90;;;;;;5033902;28;20033;-69
2021/05/06 01:15:09;;;;;;;2.92;0.60;;;8.50;74.00;;;;;;5031796;28;20405;-69
2021/05/06 01:17:35;;;;;;;3.08;0.77;;;8.50;74.00;;;;;;5033687;28;20439;-69
2021/05/06 01:20:01;;;;;;;1.60;0.73;;;8.50;74.10;;;;;;5033045;28;20028;-69
2021/05/06 01:22:27;;;;;;;2.42;0.57;;;8.50;74.10;;;;;;5033531;28;20021;-69
2021/05/06 01:24:56;;;;;;;1.77;0.63;;;8.50;74.40;;;;;;5033034;28;20021;-70
2021/05/06 01:27:34;;;;;;;3.17;0.85;;;8.50;74.30;;;;;;5033477;28;20091;-69
2021/05/06 01:30:11;;;;;;;3.60;0.65;;;8.50;74.30;;;;;;5032900;28;20021;-69
2021/05/06 01:32:47;;;;;;;2.10;0.88;;;8.50;74.50;;;;;;5033458;28;20025;-69
2021/05/06 01:57:29;;;;;;;1.95;0.60;;;8.60;74.10;;;;;;5032506;28;20025;-69
2021/05/06 02:02:08;;;;;;;1.52;0.80;;;8.60;74.40;;;;;;5032335;28;20112;-69
2021/05/06 02:04:33;;;;;;;1.70;0.90;;;8.50;74.30;;;;;;5032905;28;20513;-69
2021/05/06 02:06:59;;;;;;;3.35;0.73;;;8.60;74.40;;;;;;5032121;28;20065;-70
2021/05/06 02:09:25;;;;;;;0.80;0.65;;;8.60;74.70;;;;;;5032996;28;20482;-69
2021/05/06 02:11:50;;;;;;;0.88;0.60;;;8.60;74.50;;;;;;5031546;28;20025;-69
2021/05/06 02:14:16;;;;;;;2.70;0.70;;;8.60;74.70;;;;;;5030906;28;20360;-69
2021/05/06 02:16:41;;;;;;;3.38;0.80;;;8.60;74.30;;;;;;5048032;28;20117;-69
2021/05/06 02:19:08;;;;;;;1.92;0.90;;;8.60;74.40;;;;;;5032100;28;20021;-69
2021/05/06 02:21:34;;;;;;;1.77;0.55;;;8.50;74.60;;;;;;5031376;28;20036;-69
2021/05/06 02:24:00;;;;;;;2.40;0.70;;;8.50;74.40;;;;;;5031792;28;20021;-70
2021/05/06 02:26:26;;;;;;;1.47;0.60;;;8.60;74.20;;;;;;5032571;28;20025;-69
2021/05/06 02:28:52;;;;;;;2.67;0.60;;;8.50;74.20;;;;;;5047695;28;20044;-69
2021/05/06 02:31:18;;;;;;;0.93;0.70;;;8.50;74.10;;;;;;5032297;28;20026;-71
2021/05/06 02:33:44;;;;;;;2.00;0.75;;;8.50;74.10;;;;;;5031201;28;20355;-69
2021/05/06 02:36:11;;;;;;;2.38;0.70;;;8.50;74.00;;;;;;5030642;28;20120;-69
2021/05/06 02:38:37;;;;;;;3.78;0.88;;;8.50;73.90;;;;;;5047441;28;20034;-70
2021/05/06 02:41:03;;;;;;;1.88;0.70;;;8.60;73.60;;;;;;5030618;28;20091;-69
2021/05/06 02:43:29;;;;;;;0.88;0.50;;;8.60;73.50;;;;;;5032415;28;20028;-70
2021/05/06 02:45:54;;;;;;;1.75;0.80;;;8.60;73.20;;;;;;5031094;28;20018;-69
2021/05/06 02:48:20;;;;;;;1.92;0.75;;;8.60;73.30;;;;;;5031643;28;20052;-69
2021/05/06 02:50:51;;;;;;;1.38;0.68;;;8.60;72.90;;;;;;5032288;28;20025;-70
2021/05/06 02:53:19;;;;;;;2.72;0.70;;;8.60;73.10;;;;;;5030493;28;20061;-69
2021/05/06 02:58:17;;;;;;;2.10;0.80;;;8.60;73.20;;;;;;5033712;28;20465;-69
2021/05/06 03:03:29;;;;;;;1.38;0.82;;;8.60;73.30;;;;;;5036214;28;20461;-69
2021/05/06 03:05:55;;;;;;;2.38;0.90;;;8.60;73.10;;;;;;5036227;28;20462;-69
2021/05/06 03:08:35;;;;;;;1.52;0.80;;;8.60;73.10;;;;;;5034028;28;20127;-69
2021/05/06 03:24:32;;;;;;;4.10;1.20;;;8.60;73.30;;;;;;5035347;28;20200;-69
2021/05/06 03:26:58;;;;;;;3.28;0.90;;;8.70;73.30;;;;;;5035736;28;20033;-69
2021/05/06 03:29:42;;;;;;;1.67;0.63;;;8.60;73.40;;;;;;5035720;28;20109;-69
2021/05/06 03:34:49;;;;;;;1.05;0.77;;;8.60;73.90;;;;;;5035751;28;20021;-69
2021/05/06 03:42:54;;;;;;;3.85;1.08;;;8.70;74.60;;;;;;5035311;28;20037;-69
2021/05/06 03:51:06;;;;;;;1.45;0.85;;;8.70;75.30;;;;;;5035393;28;20025;-69
2021/05/06 04:03:25;;;;;;;2.20;0.80;;;8.70;76.40;;;;;;5034467;28;20026;-69
2021/05/06 04:15:27;;;;;;;0.93;0.73;;;8.60;76.90;;;;;;5034902;28;20021;-69
2021/05/06 04:38:38;;;;;;;3.10;0.93;;;8.40;79.00;;;;;;5034381;28;20025;-70
2021/05/06 04:54:56;;;;;;;2.17;1.13;;;8.50;79.70;;;;;;5027757;28;20224;-69
2021/05/06 05:05:24;;;;;;;1.77;0.90;;;8.60;80.20;;;;;;5033174;28;20028;-70
2021/05/06 05:07:53;;;;;;;1.98;1.08;;;8.60;80.50;;;;;;5033754;28;20072;-70
2021/05/06 05:25:50;;;;;;;4.05;0.90;;;8.70;79.90;;;;;;5033673;28;20108;-70
2021/05/06 05:28:16;;;;;;;2.00;1.00;;;8.70;81.10;;;;;;5031647;28;20029;-69
2021/05/06 05:30:42;;;;;;;4.57;1.15;;;8.70;81.60;;;;;;5033502;28;20056;-69
2021/05/06 05:33:20;;;;;;;2.65;0.90;;;8.70;81.60;;;;;;5032558;28;20029;-71
2021/05/06 05:46:43;;;;;;;3.85;1.30;;;8.70;84.20;;;;;;5032984;28;20113;-69
2021/05/06 05:56:52;;;;;;;3.72;1.30;;;8.80;84.30;;;;;;5033055;28;20062;-69
2021/05/06 05:59:18;;;;;;;3.67;1.17;;;8.90;84.10;;;;;;5031126;28;20025;-69
2021/05/06 06:01:43;;;;;;;3.35;1.10;;;8.90;84.10;;;;;;5032706;28;20466;-69
2021/05/06 06:04:09;;;;;;;3.58;1.20;;;8.90;83.70;;;;;;5047648;28;20454;-70
2021/05/06 06:06:34;;;;;;;3.30;1.50;;;8.90;83.60;;;;;;5032792;28;20021;-69
2021/05/06 06:09:00;;;;;;;3.85;1.92;;;8.90;84.00;;;;;;5048086;28;20026;-69
2021/05/06 06:11:26;;;;;;;2.92;1.15;;;9.00;84.00;;;;;;5030991;28;20474;-69
2021/05/06 06:13:53;;;;;;;3.17;1.27;;;9.00;83.90;;;;;;5048097;28;20477;-69
2021/05/06 06:16:29;;;;;;;3.95;1.30;;;9.10;83.90;;;;;;5030924;28;20052;-70
2021/05/06 06:18:57;;;;;;;2.53;1.15;;;9.10;83.80;;;;;;5048229;28;20061;-69
2021/05/06 06:21:27;;;;;;;2.03;1.35;;;9.10;84.00;;;;;;5032144;28;20513;-69
2021/05/06 06:23:54;;;;;;;3.22;1.00;;;9.20;83.90;;;;;;5032456;28;20021;-70
2021/05/06 06:26:20;;;;;;;2.95;1.17;;;9.10;83.70;;;;;;5030698;28;20022;-70
2021/05/06 06:28:48;;;;;;;3.75;1.85;;;9.10;84.20;;;;;;5032362;28;20017;-70
2021/05/06 06:33:43;;;;;;;3.55;1.40;;;9.10;84.70;;;;;;5032102;28;20029;-69
2021/05/06 06:36:09;;;;;;;2.88;1.58;;;9.00;84.70;;;;;;5032506;28;20017;-69
2021/05/06 06:38:35;;;;;;;3.72;1.70;;;9.00;84.50;;;;;;5030486;28;20025;-70
2021/05/06 06:41:03;;;;;;;5.60;1.25;;;9.00;84.80;;;;;;5031353;28;20379;-69
2021/05/06 06:43:30;;;;;;;3.28;1.10;;;9.00;83.70;;;;;;5030640;28;20032;-69
2021/05/06 06:45:56;;;;;;;2.90;0.98;;;9.00;83.10;;;;;;5032502;28;20026;-69
2021/05/06 06:48:22;;;;;;;2.47;1.15;;;9.10;80.10;;;;;;5031798;28;20025;-69
2021/05/06 06:50:47;;;;;;;2.75;0.90;;;9.20;80.10;;;;;;5032531;28;20028;-69
2021/05/06 06:53:14;;;;;;;2.65;1.30;;;9.20;79.10;;;;;;5030558;28;20029;-70
2021/05/06 06:55:40;;;;;;;3.40;1.20;;;9.20;79.00;;;;;;5047702;28;20032;-69
2021/05/06 06:58:12;;;;;;;3.97;1.40;;;9.20;78.80;;;;;;5047672;28;20029;-69
2021/05/06 07:00:39;;;;;;;2.85;1.17;;;9.10;79.50;;;;;;5031219;28;20026;-69
2021/05/06 07:03:05;;;;;;;2.55;1.35;;;9.10;80.00;;;;;;5032575;28;20028;-69
2021/05/06 07:05:30;;;;;;;3.45;1.35;;;9.20;80.80;;;;;;5031495;28;20018;-69
2021/05/06 07:08:17;;;;;;;4.13;1.30;;;9.10;80.80;;;;;;5032143;28;20485;-69
2021/05/06 07:10:48;;;;;;;4.68;1.55;;;9.10;81.30;;;;;;5032369;28;20029;-69
2021/05/06 07:13:16;;;;;;;1.65;1.30;;;9.10;80.70;;;;;;5031621;28;20033;-70
2021/05/06 07:15:46;;;;;;;3.47;1.40;;;9.10;80.70;;;;;;5032201;28;20018;-69
2021/05/06 07:18:11;;;;;;;7.28;1.30;;;9.00;81.30;;;;;;5032208;28;20548;-69
2021/05/06 07:20:37;;;;;;;3.63;1.23;;;9.00;81.70;;;;;;5031257;28;20021;-69
2021/05/06 07:23:02;;;;;;;6.95;1.50;;;9.00;81.50;;;;;;5032343;28;20018;-69
2021/05/06 07:25:28;;;;;;;3.22;1.30;;;9.10;81.80;;;;;;5030230;28;20160;-70
2021/05/06 07:27:54;;;;;;;2.63;1.30;;;9.10;82.20;;;;;;5032001;28;20112;-70
2021/05/06 07:30:20;;;;;;;3.30;1.40;;;9.10;81.20;;;;;;5030120;28;20096;-69
2021/05/06 07:32:46;;;;;;;3.72;1.30;;;9.20;81.60;;;;;;5030660;28;20036;-70
2021/05/06 07:35:12;;;;;;;3.10;1.30;;;9.10;81.70;;;;;;5030635;28;20405;-69
2021/05/06 07:37:39;;;;;;;3.67;1.25;;;9.20;82.40;;;;;;5031141;28;20049;-70
2021/05/06 07:40:06;;;;;;;3.85;1.58;;;9.20;82.60;;;;;;5044785;28;20045;-69
2021/05/06 07:42:31;;;;;;;4.43;2.58;;;9.20;82.10;;;;;;5050668;28;20033;-69
2021/05/06 07:44:57;;;;;;;4.28;1.88;;;9.20;82.00;;;;;;5051919;28;20462;-70
2021/05/06 07:47:23;;;;;;;3.90;1.58;;;9.20;82.30;;;;;;5036703;28;20043;-70
2021/05/06 07:49:49;;;;;;;3.95;1.70;;;9.30;81.60;;;;;;5054987;28;20025;-69
2021/05/06 07:52:18;;;;;;;3.63;1.52;;;9.30;81.60;;;;;;5037126;28;20114;-75
2021/05/06 07:54:45;;;;;;;4.35;1.50;;;9.30;81.60;;;;;;5037089;28;20489;-70
2021/05/06 07:57:11;;;;;;;4.35;1.90;;;9.30;81.80;;;;;;5055180;28;20020;-70
2021/05/06 07:59:37;;;;;;;5.28;1.58;;;9.30;82.50;;;;;;5036621;28;20093;-69
2021/05/06 08:02:03;;;;;;;6.40;1.33;;;9.40;82.40;;;;;;5048546;28;20028;-69
2021/05/06 08:04:29;;;;;;;3.50;1.33;;;9.40;82.20;;;;;;5036172;28;20024;-69
2021/05/06 08:06:55;;;;;;;4.45;1.33;;;9.40;81.70;;;;;;5036768;28;20124;-69
2021/05/06 08:09:21;;;;;;;3.50;1.52;;;9.40;81.70;;;;;;5035469;28;20121;-70
2021/05/06 08:11:48;;;;;;;2.67;1.65;;;9.50;81.60;;;;;;5036965;28;20059;-70
2021/05/06 08:14:14;;;;;;;3.60;1.50;;;9.50;81.70;;;;;;5054644;28;20104;-70
2021/05/06 08:16:40;;;;;;;3.45;1.65;;;9.70;80.80;;;;;;5053804;28;20112;-70
2021/05/06 08:19:05;;;;;;;3.55;1.50;;;9.70;80.00;;;;;;5036869;28;20111;-70
2021/05/06 08:21:31;;;;;;;3.40;1.83;;;9.80;80.30;;;;;;5053857;28;20083;-70
2021/05/06 08:23:57;;;;;;;4.82;1.30;;;9.80;80.10;;;;;;5053959;28;20529;-70
2021/05/06 08:26:25;;;;;;;3.55;1.30;;;9.90;80.30;;;;;;5035238;28;20355;-70
2021/05/06 08:28:53;;;;;;;2.78;1.30;;;9.90;79.00;;;;;;5052767;28;20025;-70
2021/05/06 08:31:19;;;;;;;3.83;1.70;;;9.90;79.10;;;;;;5035414;28;20029;-75
2021/05/06 08:33:45;;;;;;;2.70;1.23;;;9.90;78.30;;;;;;5053862;28;20029;-70
2021/05/06 08:36:11;;;;;;;5.80;1.50;;;9.90;78.20;;;;;;5052511;28;20044;-70
2021/05/06 08:38:37;;;;;;;3.05;1.52;;;9.90;78.20;;;;;;5051665;28;20072;-70
2021/05/06 08:41:03;;;;;;;3.08;1.10;;;9.80;78.20;;;;;;5052917;28;20041;-70
2021/05/06 08:43:32;;;;;;;2.17;1.73;;;9.90;78.70;;;;;;5053185;28;20033;-70
2021/05/06 08:45:58;;;;;;;2.53;1.50;;;9.80;78.70;;;;;;5052162;28;20116;-70
2021/05/06 08:48:24;;;;;;;4.30;1.52;;;9.90;78.50;;;;;;5051581;28;20227;-70
2021/05/06 08:50:53;;;;;;;4.47;1.42;;;9.80;77.40;;;;;;5052535;28;20112;-70
2021/05/06 08:53:21;;;;;;;4.55;2.03;;;9.90;77.60;;;;;;5052074;28;20021;-71
2021/05/06 08:55:48;;;;;;;4.57;1.90;;;9.90;77.70;;;;;;5051705;28;20468;-70
2021/05/06 08:58:14;;;;;;;3.83;1.30;;;10.00;77.90;;;;;;5053640;28;20024;-70
2021/05/06 09:00:40;;;;;;;4.43;1.58;;;10.10;77.50;;;;;;5045269;28;20043;-70
2021/05/06 09:03:06;;;;;;;3.08;1.40;;;10.10;77.00;;;;;;5043365;28;20028;-70
2021/05/06 09:05:35;;;;;;;3.97;1.67;;;10.20;76.90;;;;;;5034400;28;20111;-71
2021/05/06 09:08:02;;;;;;;5.20;1.50;;;10.20;76.60;;;;;;5044515;28;20061;-70
2021/05/06 09:10:39;;;;;;;4.88;1.67;;;10.20;76.30;;;;;;5040572;28;20087;-69
2021/05/06 09:13:26;;;;;;;5.82;1.58;;;10.20;75.60;;;;;;5055771;28;20029;-69
2021/05/06 09:15:52;;;;;;;5.07;1.50;;;10.30;75.80;;;;;;5043630;28;20071;-70
2021/05/06 09:18:34;;;;;;;4.55;1.42;;;10.40;75.50;;;;;;5041439;28;20065;-68
2021/05/06 09:21:01;;;;;;;4.72;1.80;;;10.40;76.10;;;;;;5042520;28;20163;-69
2021/05/06 09:23:26;;;;;;;3.35;1.98;;;10.40;74.60;;;;;;5040883;28;20022;-70
2021/05/06 09:25:52;;;;;;;3.03;1.70;;;10.50;74.90;;;;;;5041713;28;20028;-70
2021/05/06 09:28:20;;;;;;;3.08;1.70;;;10.50;75.30;;;;;;5042939;28;20112;-69
2021/05/06 09:31:02;;;;;;;5.60;1.55;;;10.50;75.20;;;;;;5044659;28;20013;-69
2021/05/06 09:33:32;;;;;;;;;;;10.50;74.90;;;;;;5045320;28;20079;-69
2021/05/06 09:36:14;;;;;;;5.10;1.58;;;10.50;74.90;;;;;;5049504;28;20411;-68
2021/05/06 09:38:43;;;;;;;2.88;1.40;;;10.50;75.00;;;;;;5057012;28;20017;-70
2021/05/06 09:41:10;;;;;;;2.17;1.33;;;10.30;75.10;;;;;;5041694;28;20025;-70
2021/05/06 09:43:42;;;;;;;3.70;1.50;;;10.30;76.10;;;;;;5042995;28;20013;-69
2021/05/06 09:46:25;;;;;;;2.92;1.55;;;10.30;76.60;;;;;;5042323;28;20087;-69
2021/05/06 09:48:56;;;;;;;6.53;1.65;;;10.30;76.00;;;;;;5043619;28;20032;-69
2021/05/06 09:51:30;;;;;;;5.38;2.03;;;10.20;75.80;;;;;;5041318;28;20021;-70
2021/05/06 09:53:56;;;;;;;4.13;1.60;;;10.20;76.60;;;;;;5043130;28;20025;-70
2021/05/06 09:56:26;;;;;;;5.07;1.55;;;10.20;76.80;;;;;;5042807;28;20075;-72
2021/05/06 09:58:56;;;;;;;3.35;1.73;;;10.30;77.00;;;;;;5041865;28;20091;-69
2021/05/06 10:01:30;;;;;;;5.57;1.90;;;10.30;76.60;;;;;;5045071;28;20100;-75
2021/05/06 10:03:57;;;;;;;5.68;1.48;;;10.40;76.10;;;;;;5042273;28;20014;-70
2021/05/06 10:06:23;;;;;;;6.72;2.08;;;10.40;76.70;;;;;;5037916;28;20032;-70
2021/05/06 10:08:49;;;;;;;4.00;2.00;;;10.40;77.20;;;;;;5042455;28;20457;-71
2021/05/06 10:11:16;;;;;;;6.38;1.90;;;10.50;76.70;;;;;;5043272;28;20025;-70
2021/05/06 10:13:43;;;;;;;3.47;1.60;;;10.60;76.30;;;;;;5040682;28;20022;-70
2021/05/06 10:16:10;;;;;;;6.25;1.88;;;10.70;76.20;;;;;;5041405;28;20029;-70
2021/05/06 10:18:41;;;;;;;6.60;1.83;;;10.80;76.40;;;;;;5038321;28;20025;-70
2021/05/06 10:21:08;;;;;;;4.57;1.70;;;10.80;76.60;;;;;;5041823;28;20109;-69
2021/05/06 10:23:36;;;;;;;3.00;1.80;;;10.80;76.00;;;;;;5040405;28;20022;-69
2021/05/06 10:26:02;;;;;;;5.90;2.13;;;10.80;76.50;;;;;;5040261;28;20033;-69
2021/05/06 10:28:33;;;;;;;5.25;1.85;;;10.80;76.00;;;;;;5040466;28;20505;-72
2021/05/06 10:31:07;;;;;;;5.15;1.88;;;10.80;75.70;;;;;;5044715;28;20014;-69
2021/05/06 10:33:37;;;;;;;4.25;1.75;;;10.80;75.00;;;;;;5040274;28;20067;-70
2021/05/06 10:36:05;;;;;;;7.57;1.65;;;10.80;75.20;;;;;;5044715;28;20021;-70
2021/05/06 10:38:35;;;;;;;2.15;1.23;;;10.80;74.80;;;;;;5042760;28;20029;-70
2021/05/06 10:41:22;;;;;;;3.15;1.38;;;10.80;74.00;;;;;;5052168;28;20025;-69
2021/05/06 10:43:53;;;;;;;4.35;1.85;;;10.90;74.30;;;;;;5050484;28;20066;-69
2021/05/06 10:46:18;;;;;;;3.70;1.70;;;11.00;74.70;;;;;;5031991;28;20084;-70
2021/05/06 10:48:53;;;;;;;3.90;1.73;;;11.00;75.90;;;;;;5033568;28;20063;-70
2021/05/06 10:51:40;;;;;;;3.28;1.80;;;11.00;75.80;;;;;;5032015;28;20461;-69
2021/05/06 10:54:27;;;;;;;5.22;1.80;;;11.00;76.10;;;;;;5052069;28;20028;-70
2021/05/06 10:56:54;;;;;;;2.75;1.30;;;11.00;75.90;;;;;;5033743;28;20031;-71
2021/05/06 10:59:40;;;;;;;3.67;0.90;;;10.90;72.80;;;;;;5034214;28;20018;-68
2021/05/06 11:02:07;;;;;;;1.50;0.80;;;10.80;72.50;;;;;;5049468;28;20125;-70
2021/05/06 11:04:40;;;;;;;1.65;0.90;;;10.80;72.30;;;;;;5033327;28;20014;-70
2021/05/06 11:07:19;;;;;;;3.63;0.90;;;10.70;72.40;;;;;;5051680;28;20029;-70
2021/05/06 11:09:47;;;;;;;1.25;0.80;;;10.70;72.50;;;;;;5046829;28;20108;-70
2021/05/06 11:12:15;;;;;;;2.58;0.82;;;10.80;72.70;;;;;;5042964;28;20033;-70
2021/05/06 11:15:03;;;;;;;1.67;0.63;;;10.80;72.30;;;;;;5051394;28;20107;-70
2021/05/06 11:17:35;;;;;;;1.95;0.70;;;10.90;72.10;;;;;;5050939;28;20059;-74
2021/05/06 11:20:03;;;;;;;1.80;0.70;;;10.90;72.20;;;;;;5054288;28;20079;-70
2021/05/06 11:22:44;;;;;;;1.25;0.90;;;10.90;72.00;;;;;;5036974;28;20116;-71
2021/05/06 11:27:54;;;;;;;1.52;0.85;;;10.70;72.00;;;;;;5055294;28;20052;-69
2021/05/06 11:30:31;;;;;;;2.20;0.98;;;10.80;72.00;;;;;;5055054;28;20013;-70
2021/05/06 11:36:03;;;;;;;2.38;0.70;;;10.70;73.70;;;;;;5054916;28;20036;-70
2021/05/06 11:38:43;;;;;;;0.77;0.50;;;10.70;74.20;;;;;;5053959;28;20021;-73
2021/05/06 11:41:27;;;;;;;1.15;0.50;;;10.70;74.80;;;;;;5055413;28;20474;-69
2021/05/06 11:44:03;;;;;;;2.05;0.80;;;10.80;74.10;;;;;;5055695;28;20025;-69
2021/05/06 11:46:31;;;;;;;3.30;0.70;;;10.80;73.90;;;;;;5055577;28;20028;-75
2021/05/06 11:49:03;;;;;;;1.77;1.13;;;10.80;74.60;;;;;;5055216;28;20020;-69
2021/05/06 11:51:42;;;;;;;1.90;0.80;;;10.80;74.50;;;;;;5037174;28;20047;-75
2021/05/06 11:54:16;;;;;;;1.50;0.50;;;10.80;73.50;;;;;;5055403;28;20021;-69
2021/05/06 11:56:53;;;;;;;1.00;0.82;;;10.70;74.10;;;;;;5036865;28;20074;-69
2021/05/06 11:59:20;;;;;;;3.45;0.70;;;10.70;74.10;;;;;;5055354;28;20454;-69
2021/05/06 12:01:46;;;;;;;1.15;0.60;;;10.80;73.90;;;;;;5053164;28;20104;-71
2021/05/06 12:04:22;;;;;;;0.65;0.50;;;10.80;73.80;;;;;;5051770;28;20020;-70
2021/05/06 12:06:48;;;;;;;0.90;0.47;;;10.80;73.50;;;;;;5055023;28;20044;-70
2021/05/06 12:09:23;;;;;;;1.50;0.55;;;10.90;73.10;;;;;;5037229;28;20025;-70
2021/05/06 12:11:49;;;;;;;0.40;0.40;;;10.90;72.30;;;;;;5054167;28;20466;-70
2021/05/06 12:14:15;;;;;;;1.75;0.40;;;10.90;71.90;;;;;;5036662;28;20021;-70
2021/05/06 12:16:40;;;;;;;1.15;0.55;;;10.90;71.30;;;;;;5053627;28;20096;-70
2021/05/06 12:19:10;;;;;;;0.75;0.40;;;10.90;71.40;;;;;;5036809;28;20357;-70
2021/05/06 12:21:35;;;;;;;1.42;0.52;;;10.90;71.50;;;;;;5035880;28;20390;-71
2021/05/06 12:24:03;;;;;;;0.47;0.40;;;10.90;71.60;;;;;;5053491;28;20017;-69
2021/05/06 12:26:29;;;;;;;0.95;0.50;;;10.90;72.20;;;;;;5036627;28;20068;-71
2021/05/06 12:28:55;;;;;;;1.25;0.60;;;10.90;71.60;;;;;;5054097;28;20025;-70
2021/05/06 12:31:21;;;;;;;0.85;0.40;;;10.80;72.60;;;;;;5035889;28;20017;-70
2021/05/06 12:33:47;;;;;;;0.70;0.45;;;10.80;73.20;;;;;;5053629;28;20388;-70
2021/05/06 12:36:13;;;;;;;0.30;0.30;;;10.90;73.50;;;;;;5054522;28;20017;-69
2021/05/06 12:38:40;;;;;;;1.42;0.40;;;10.90;73.20;;;;;;5052093;28;20406;-71
2021/05/06 12:41:07;;;;;;;0.40;0.40;;;11.00;74.50;;;;;;5053352;28;20377;-70
2021/05/06 12:43:34;;;;;;;2.75;0.50;;;11.00;74.90;;;;;;5052638;28;20025;-71
2021/05/06 12:46:10;;;;;;;1.08;0.40;;;10.90;73.80;;;;;;5054367;28;20499;-70
2021/05/06 12:48:44;;;;;;;1.17;0.50;;;10.90;73.70;;;;;;5052390;28;20156;-71
2021/05/06 12:51:13;;;;;;;0.55;0.40;;;10.90;74.90;;;;;;5054366;28;20032;-70
2021/05/06 12:54:04;;;;;;;0.73;0.50;;;10.90;76.40;;;;;;5053681;28;20032;-70
2021/05/06 12:56:32;;;;;;;0.40;0.22;;;10.90;75.60;;;;;;5052925;28;20021;-70
2021/05/06 12:59:23;;;;;;;0.52;0.40;;;10.90;75.50;;;;;;5054094;28;20025;-70
2021/05/06 13:01:49;;;;;;;0.60;0.38;;;10.90;74.80;;;;;;5052217;28;20342;-70
2021/05/06 13:04:14;;;;;;;0.40;0.30;;;10.80;75.00;;;;;;5052412;28;20454;-70
2021/05/06 13:06:40;;;;;;;2.80;0.60;;;10.70;75.20;;;;;;5053368;28;20027;-70
2021/05/06 13:09:17;;;;;;;2.15;0.50;;;10.60;76.30;;;;;;5052282;28;20462;-70
2021/05/06 13:11:44;;;;;;;1.00;0.40;;;10.60;77.80;;;;;;5052699;28;20021;-70
2021/05/06 13:14:09;;;;;;;0.82;0.38;;;10.60;77.90;;;;;;5054197;28;20028;-69
2021/05/06 13:16:45;;;;;;;0.65;0.57;;;10.60;77.40;;;;;;5053457;28;20017;-71
2021/05/06 13:19:16;;;;;;;0.40;0.32;;;10.60;77.60;;;;;;5046246;28;20117;-70
2021/05/06 13:21:51;;;;;;;0.75;0.25;;;10.60;77.30;;;;;;5037877;28;20021;-70
2021/05/06 13:24:17;;;;;;;0.82;0.40;;;10.60;78.20;;;;;;5045149;28;20092;-70
2021/05/06 13:26:44;;;;;;;0.70;0.32;;;10.60;77.80;;;;;;5048824;28;20112;-70
2021/05/06 13:29:16;;;;;;;0.60;0.50;;;10.60;76.50;;;;;;5057059;28;20028;-70
2021/05/06 13:31:47;;;;;;;0.55;0.40;;;10.60;76.70;;;;;;5041340;28;20369;-71
2021/05/06 13:34:16;;;;;;;2.92;0.98;;;10.70;77.40;;;;;;5044969;28;20038;-70
2021/05/06 13:36:45;;;;;;;0.40;0.40;;;10.70;78.50;;;;;;5041059;28;20017;-70
2021/05/06 13:39:14;;;;;;;0.80;0.30;;;10.70;78.80;;;;;;5045619;28;20441;-70
2021/05/06 13:41:46;;;;;;;1.63;0.60;;;10.70;78.40;;;;;;5065487;28;20037;-72
2021/05/06 13:44:13;;;;;;;;;;;10.60;79.10;;;;;;5044700;28;20025;-70
2021/05/06 13:46:45;;;;;;;0.55;0.30;;;10.70;80.70;;;;;;5042389;28;19988;-70
2021/05/06 13:49:11;;;;;;;0.40;0.40;;;10.70;80.10;;;;;;5051655;28;20365;-70
2021/05/06 13:51:37;;;;;;;0.43;0.43;;;10.70;79.10;;;;;;5051466;28;20036;-75
2021/05/06 13:54:02;;;;;;;0.50;0.25;;;10.70;77.70;;;;;;5053066;28;20017;-69
2021/05/06 13:56:28;;;;;;;0.77;0.40;;;10.70;78.00;;;;;;5051834;28;20113;-69
2021/05/06 13:58:54;;;;;;;2.33;0.40;;;10.60;79.10;;;;;;5051159;28;20021;-70
2021/05/06 14:01:20;;;;;;;0.73;0.20;;;10.60;79.20;;;;;;5042804;28;20542;-69
2021/05/06 14:03:45;;;;;;;0.43;0.30;;;10.60;80.10;;;;;;5066045;28;20042;-70
2021/05/06 14:06:12;;;;;;;0.30;0.28;;;10.70;80.70;;;;;;5072913;28;20016;-71
2021/05/06 14:08:38;;;;;;;0.60;0.35;;;10.60;80.70;;;;;;5070730;28;20040;-76
2021/05/06 14:11:04;;;;;;;0.80;0.45;;;10.60;81.40;;;;;;5072955;28;20082;-69
2021/05/06 14:13:31;;;;;;;1.23;0.40;;;10.70;81.60;;;;;;5071439;28;20062;-69
2021/05/06 14:15:57;;;;;;;0.55;0.32;;;10.60;82.20;;;;;;5072622;28;20070;-69
2021/05/06 14:18:23;;;;;;;2.88;0.32;;;10.60;82.00;;;;;;5071283;28;20024;-70
2021/05/06 14:20:49;;;;;;;1.30;0.30;;;10.60;82.40;;;;;;5072232;28;20027;-70
2021/05/06 14:23:18;;;;;;;0.80;0.35;;;10.60;83.00;;;;;;5071418;28;20157;-70
2021/05/06 14:25:44;;;;;;;0.38;0.20;;;10.60;83.00;;;;;;5070944;28;20377;-70
2021/05/06 14:28:09;;;;;;;0.52;0.28;;;10.60;83.10;;;;;;5072679;28;20040;-69
2021/05/06 14:30:35;;;;;;;1.60;0.30;;;10.60;82.90;;;;;;5071552;28;20048;-69
2021/05/06 14:33:01;;;;;;;0.50;0.32;;;10.60;82.90;;;;;;5070584;28;20017;-70
2021/05/06 14:35:28;;;;;;;0.45;0.30;;;10.70;83.10;;;;;;5071362;28;20025;-69
2021/05/06 14:37:54;;;;;;;0.52;0.30;;;10.70;82.90;;;;;;5070073;28;20466;-70
2021/05/06 14:40:21;;;;;;;0.60;0.43;;;10.60;83.10;;;;;;5070422;28;20060;-70
2021/05/06 14:42:47;;;;;;;1.35;0.45;;;10.60;83.70;;;;;;5070295;28;20035;-70
2021/05/06 14:45:13;;;;;;;0.60;0.50;;;10.60;83.60;;;;;;5072135;28;20040;-70
2021/05/06 14:47:40;;;;;;;0.68;0.35;;;10.60;83.70;;;;;;5070880;28;20036;-69
2021/05/06 14:50:08;;;;;;;1.27;0.40;;;10.70;84.00;;;;;;5070100;28;20480;-70
2021/05/06 14:52:34;;;;;;;0.28;0.28;;;10.70;84.10;;;;;;5070787;28;20462;-69
2021/05/06 14:54:59;;;;;;;0.57;0.40;;;10.80;84.10;;;;;;5074855;28;20027;-70
2021/05/06 14:57:25;;;;;;;1.30;0.40;;;10.80;84.20;;;;;;5076176;28;20481;-70
2021/05/06 14:59:51;;;;;;;0.40;0.40;;;10.80;84.70;;;;;;5073663;28;20031;-70
2021/05/06 15:02:17;;;;;;;0.82;0.40;;;10.70;85.50;;;;;;5074825;28;20048;-71
2021/05/06 15:04:42;;;;;;;1.92;0.50;;;10.80;85.40;;;;;;5075377;28;20458;-76
2021/05/06 15:07:08;;;;;;;1.50;0.60;;;10.80;85.30;;;;;;5074265;28;20036;-70
2021/05/06 15:09:33;;;;;;;0.60;0.40;;;10.80;85.70;;;;;;5074167;28;20364;-70
2021/05/06 15:12:00;;;;;;;1.25;0.45;;;11.00;85.20;;;;;;5075556;28;20035;-69
2021/05/06 15:14:26;;;;;;;2.20;0.70;;;11.00;85.20;;;;;;5076204;28;20024;-69
2021/05/06 15:16:52;;;;;;;0.70;0.50;;;11.20;84.90;;;;;;5075511;28;20025;-71
2021/05/06 15:19:19;;;;;;;1.10;0.50;;;11.20;84.30;;;;;;5075988;28;20036;-71
2021/05/06 15:21:44;;;;;;;1.88;0.60;;;11.30;84.50;;;;;;5062347;28;20051;-70
2021/05/06 15:24:10;;;;;;;1.38;0.90;;;11.30;85.00;;;;;;5034797;28;20056;-69
2021/05/06 15:26:36;;;;;;;0.75;0.50;;;11.30;84.50;;;;;;5034583;28;20029;-69
2021/05/06 15:29:04;;;;;;;3.15;1.40;;;11.30;84.80;;;;;;5034097;28;20206;-69
2021/05/06 15:31:30;;;;;;;1.83;1.00;;;11.30;84.60;;;;;;5035837;28;20025;-69
2021/05/06 15:33:56;;;;;;;1.15;0.60;;;11.20;84.60;;;;;;5072992;28;20105;-70
2021/05/06 15:36:23;;;;;;;5.47;2.78;;;11.30;84.60;;;;;;5074481;28;20051;-70
2021/05/06 15:38:48;;;;;;;5.85;2.55;;;11.20;85.00;;;;;;5074752;28;20464;-70
2021/05/06 15:41:14;;;;;;;5.22;2.22;;;11.20;85.20;;;;;;5073772;28;20029;-69
2021/05/06 15:43:40;;;;;;;1.90;1.00;;;11.20;85.60;;;;;;5041123;28;20024;-69
2021/05/06 15:46:06;;;;;;;2.10;0.80;;;11.20;86.00;;;;;;5033779;28;20021;-70
2021/05/06 15:48:35;;;;;;;2.60;0.73;;;11.20;85.90;;;;;;5035563;28;20450;-70
2021/05/06 15:51:00;;;;;;;1.83;0.80;;;11.30;86.20;;;;;;5033436;28;20401;-69
2021/05/06 15:53:27;;;;;;;1.50;0.82;;;11.30;86.70;;;;;;5035730;28;20026;-70
2021/05/06 15:55:54;;;;;;;2.03;0.73;;;11.30;86.80;;;;;;5033499;28;20307;-70
2021/05/06 15:58:21;;;;;;;1.38;0.70;;;11.30;86.30;;;;;;5033924;28;20060;-70
2021/05/06 16:00:47;;;;;;;1.42;1.05;;;11.20;86.50;;;;;;5033342;28;20017;-70
2021/05/06 16:03:15;;;;;;;13.55;7.50;;;11.20;86.40;;;;;;5060575;28;20488;-69
2021/05/06 16:05:45;;;;;;;4.97;2.55;;;11.20;87.00;;;;;;5073167;28;20461;-69
2021/05/06 16:08:11;;;;;;;2.22;1.27;;;11.20;87.10;;;;;;5073155;28;20127;-70
2021/05/06 16:10:37;;;;;;;1.77;0.75;;;11.20;87.20;;;;;;5073510;28;20104;-69
2021/05/06 16:13:02;;;;;;;1.05;0.57;;;11.10;86.80;;;;;;5073188;28;20152;-69
2021/05/06 16:15:29;;;;;;;1.40;0.70;;;11.10;87.00;;;;;;5073772;28;20135;-70
2021/05/06 16:17:54;;;;;;;1.15;0.57;;;11.00;87.70;;;;;;5074336;28;20111;-70
2021/05/06 16:20:27;;;;;;;1.75;0.70;;;11.10;87.20;;;;;;5074554;28;20096;-70
2021/05/06 16:22:52;;;;;;;1.23;0.55;;;11.00;86.60;;;;;;5074307;28;20027;-70
2021/05/06 16:25:18;;;;;;;1.20;0.52;;;11.00;86.40;;;;;;5074218;28;20028;-69
2021/05/06 16:27:45;;;;;;;1.70;0.60;;;11.00;86.60;;;;;;5054594;28;20037;-70
2021/05/06 16:30:12;;;;;;;1.40;0.75;;;11.00;87.20;;;;;;5040963;28;20017;-71
2021/05/06 16:32:39;;;;;;;7.60;1.50;;;10.90;87.20;;;;;;5049590;28;20369;-70
2021/05/06 16:35:11;;;;;;;1.25;0.68;;;10.90;87.30;;;;;;5042824;28;20501;-70